Time;durP1;ratioP1;P1;durP2;ratioP2;P2;SDS_P1;SDS_P2;PMS_P1;PMS_P2;Temp;Humidity;BMP_temperature;BMP_pressure;BME280_temperature;BME280_humidity;BME280_pressure;Samples;Min_cycle;Max_cycle;Signal;HPM_P1;HPM_P2
2024/01/25 00:01:49;;;;;;;20.13;3.07;;;;;;;9.16;100.00;99322.81;5051188;28;20241;-77
2024/01/25 00:04:16;;;;;;;14.67;2.77;;;;;;;9.23;100.00;99319.00;5051058;28;20215;-77
2024/01/25 00:06:42;;;;;;;9.90;2.10;;;;;;;9.22;100.00;99312.00;5050563;28;20232;-77
2024/01/25 00:09:10;;;;;;;9.10;2.87;;;;;;;9.19;100.00;99312.97;5051152;28;20214;-77
2024/01/25 00:11:37;;;;;;;14.20;2.93;;;;;;;9.17;100.00;99303.47;5051069;28;20238;-77
2024/01/25 00:14:04;;;;;;;12.23;2.80;;;;;;;9.19;100.00;99301.59;5051046;28;20207;-77
2024/01/25 00:16:31;;;;;;;14.10;3.23;;;;;;;9.17;100.00;99303.47;5050637;28;20207;-77
2024/01/25 00:18:57;;;;;;;11.37;2.20;;;;;;;9.23;100.00;99309.28;5051181;28;20229;-77
2024/01/25 00:21:24;;;;;;;12.67;2.37;;;;;;;9.24;100.00;99295.16;5051141;28;20246;-76
2024/01/25 00:23:50;;;;;;;12.30;2.80;;;;;;;9.28;100.00;99306.44;5059772;28;20208;-78
2024/01/25 00:26:18;;;;;;;10.47;2.23;;;;;;;9.30;100.00;99299.34;5064615;28;20202;-76
2024/01/25 00:28:46;;;;;;;14.77;3.27;;;;;;;9.32;100.00;99303.63;5071235;28;20214;-78
2024/01/25 00:31:13;;;;;;;10.50;2.80;;;;;;;9.35;100.00;99302.59;5070998;28;20238;-76
2024/01/25 00:33:39;;;;;;;13.37;2.87;;;;;;;9.39;100.00;99298.91;5062335;28;20210;-78
2024/01/25 00:36:07;;;;;;;18.27;2.53;;;;;;;9.36;100.00;99299.06;5060629;28;20202;-79
2024/01/25 00:38:34;;;;;;;6.70;2.00;;;;;;;9.33;100.00;99299.19;5050613;28;20207;-77
2024/01/25 00:41:01;;;;;;;10.40;2.70;;;;;;;9.31;100.00;99307.16;5051071;28;20204;-77
2024/01/25 00:43:33;;;;;;;12.63;2.30;;;;;;;9.29;100.00;99310.78;5054948;28;20215;-76
2024/01/25 00:46:00;;;;;;;9.67;2.70;;;;;;;9.30;100.00;99309.88;5054939;28;20217;-77
2024/01/25 00:48:29;;;;;;;14.37;3.00;;;;;;;9.33;100.00;99315.00;5054343;28;20231;-77
2024/01/25 00:50:57;;;;;;;10.57;2.73;;;;;;;9.35;100.00;99313.16;5060334;28;20206;-76
2024/01/25 00:53:24;;;;;;;14.40;2.93;;;;;;;9.37;100.00;99312.16;5068348;28;20207;-77
2024/01/25 00:55:51;;;;;;;7.87;2.30;;;;;;;9.42;100.00;99309.31;5074678;28;20660;-77
2024/01/25 00:58:18;;;;;;;8.93;2.20;;;;;;;9.45;100.00;99314.44;5074417;28;20292;-78
2024/01/25 01:00:47;;;;;;;8.87;2.43;;;;;;;9.40;100.00;99309.38;5074533;28;20222;-77
2024/01/25 01:03:15;;;;;;;17.83;3.30;;;;;;;9.39;100.00;99309.44;5074650;28;20231;-77
2024/01/25 01:05:42;;;;;;;13.60;2.83;;;;;;;9.39;100.00;99298.91;5074760;28;20249;-77
2024/01/25 01:08:10;;;;;;;7.70;2.10;;;;;;;9.41;100.00;99302.31;5074114;28;20241;-77
2024/01/25 01:10:36;;;;;;;12.63;2.83;;;;;;;9.38;100.00;99302.47;5074795;28;20531;-78
2024/01/25 01:13:02;;;;;;;12.67;3.40;;;;;;;9.40;100.00;99300.59;5074966;28;20236;-78
2024/01/25 01:15:29;;;;;;;14.30;2.77;;;;;;;9.39;100.00;99298.91;5074278;28;20711;-77
2024/01/25 01:17:57;;;;;;;11.73;2.80;;;;;;;9.35;100.00;99306.09;5073703;28;20293;-77
2024/01/25 01:20:24;;;;;;;13.23;2.77;;;;;;;9.34;100.00;99295.59;5074302;28;20699;-77
2024/01/25 01:22:51;;;;;;;17.73;3.30;;;;;;;9.34;100.00;99300.88;5074094;28;20725;-77
2024/01/25 01:25:17;;;;;;;12.20;2.53;;;;;;;9.40;100.00;99297.97;5074073;28;20210;-78
2024/01/25 01:27:44;;;;;;;12.67;2.57;;;;;;;9.45;100.00;99301.25;5073698;28;20239;-78
2024/01/25 01:30:12;;;;;;;14.13;2.83;;;;;;;9.45;100.00;99309.16;5074059;28;20230;-77
2024/01/25 01:32:38;;;;;;;11.27;2.20;;;;;;;9.44;100.00;99302.19;5074021;28;20238;-77
2024/01/25 01:35:07;;;;;;;11.20;2.77;;;;;;;9.48;100.00;99299.31;5074114;28;20208;-77
2024/01/25 01:37:33;;;;;;;12.97;2.70;;;;;;;9.49;100.00;99306.31;5073800;28;20467;-77
2024/01/25 01:40:00;;;;;;;14.10;2.90;;;;;;;9.43;100.00;99303.94;5074093;28;20677;-77
2024/01/25 01:42:28;;;;;;;7.87;2.00;;;;;;;9.42;100.00;99304.06;5074014;28;20253;-78
2024/01/25 01:44:54;;;;;;;11.50;2.80;;;;;;;9.38;100.00;99295.41;5073911;28;20556;-78
2024/01/25 01:47:21;;;;;;;14.47;2.50;;;;;;;9.37;100.00;99298.97;5073793;28;20230;-78
2024/01/25 01:49:48;;;;;;;11.47;3.03;;;;;;;9.36;100.00;99293.78;5074564;28;20219;-77
2024/01/25 01:52:16;;;;;;;10.20;2.63;;;;;;;9.35;100.00;99292.91;5074273;28;20280;-77
2024/01/25 01:54:44;;;;;;;9.97;2.43;;;;;;;9.35;100.00;99297.31;5073518;28;20681;-77
2024/01/25 01:57:11;;;;;;;8.90;2.37;;;;;;;9.42;100.00;99293.50;5073627;28;20589;-77
2024/01/25 01:59:37;;;;;;;7.77;2.63;;;;;;;9.41;100.00;99291.75;5072729;28;20220;-77
2024/01/25 02:02:04;;;;;;;10.90;3.37;;;;;;;9.45;100.00;99290.69;5073633;28;20227;-77
2024/01/25 02:04:31;;;;;;;13.87;2.20;;;;;;;9.40;100.00;99290.03;5073561;28;20229;-77
2024/01/25 02:06:57;;;;;;;13.10;2.50;;;;;;;9.37;100.00;99284.94;5073071;28;20241;-77
2024/01/25 02:09:25;;;;;;;12.73;2.67;;;;;;;9.33;100.00;99283.34;5073708;28;20211;-77
2024/01/25 02:12:00;;;;;;;12.40;3.07;;;;;;;9.30;100.00;99292.25;5073604;28;20234;-77
2024/01/25 02:14:26;;;;;;;11.80;2.93;;;;;;;9.29;100.00;99295.81;5073336;28;20216;-78
2024/01/25 02:16:53;;;;;;;15.10;2.47;;;;;;;9.35;100.00;99292.03;5073118;28;20218;-78
2024/01/25 02:19:19;;;;;;;11.03;2.30;;;;;;;9.32;100.00;99286.91;5073312;28;20214;-77
2024/01/25 02:21:46;;;;;;;12.73;3.00;;;;;;;9.31;100.00;99282.56;5073055;28;20233;-78
2024/01/25 02:24:14;;;;;;;10.53;2.73;;;;;;;9.28;100.00;99286.19;5073291;28;20214;-78
2024/01/25 02:26:40;;;;;;;11.87;2.47;;;;;;;9.28;100.00;99296.75;5072463;28;20222;-78
2024/01/25 02:29:08;;;;;;;9.97;2.60;;;;;;;9.29;100.00;99295.81;5073106;28;20210;-77
2024/01/25 02:31:34;;;;;;;9.03;2.80;;;;;;;9.36;100.00;99293.78;5073063;28;20595;-77
2024/01/25 02:34:01;;;;;;;10.17;2.37;;;;;;;9.36;100.00;99296.41;5073450;28;20221;-78
2024/01/25 02:36:27;;;;;;;20.27;3.07;;;;;;;9.36;100.00;99288.50;5072811;28;20228;-77
2024/01/25 02:38:54;;;;;;;14.90;2.67;;;;;;;9.32;100.00;99292.19;5072952;28;20206;-78
2024/01/25 02:41:21;;;;;;;8.03;1.93;;;;;;;9.28;100.00;99291.47;5072586;28;20242;-78
2024/01/25 02:43:48;;;;;;;7.63;2.20;;;;;;;9.28;100.00;99306.44;5072749;28;20208;-77
2024/01/25 02:46:14;;;;;;;15.20;3.27;;;;;;;9.29;100.00;99300.22;5072153;28;20220;-78
2024/01/25 02:48:41;;;;;;;11.33;2.80;;;;;;;9.26;100.00;99306.53;5073029;28;20239;-78
2024/01/25 02:51:07;;;;;;;12.07;2.60;;;;;;;9.26;100.00;99303.03;5072637;28;20221;-77
2024/01/25 02:53:34;;;;;;;13.20;2.57;;;;;;;9.31;100.00;99311.59;5072464;28;20205;-77
2024/01/25 02:56:00;;;;;;;10.97;2.73;;;;;;;9.37;100.00;99308.69;5072461;28;20222;-77
2024/01/25 02:58:28;;;;;;;8.97;2.50;;;;;;;9.31;100.00;99301.88;5072030;28;20216;-78
2024/01/25 03:00:54;;;;;;;13.43;2.97;;;;;;;9.27;100.00;99305.59;5072069;28;20207;-77
2024/01/25 03:03:23;;;;;;;10.83;2.33;;;;;;;9.25;100.00;99299.50;5072494;28;20559;-77
2024/01/25 03:05:49;;;;;;;9.97;3.00;;;;;;;9.24;100.00;99310.16;5071716;28;20388;-78
2024/01/25 03:08:16;;;;;;;7.60;2.13;;;;;;;9.28;100.00;99304.66;5071757;28;20230;-77
2024/01/25 03:10:42;;;;;;;8.00;2.50;;;;;;;9.19;100.00;99296.31;5072115;28;20214;-78
2024/01/25 03:13:09;;;;;;;10.53;2.47;;;;;;;9.15;100.00;99305.28;5072035;28;20576;-77
2024/01/25 03:15:37;;;;;;;12.10;2.30;;;;;;;9.11;100.00;99314.28;5072021;28;20214;-77
2024/01/25 03:18:04;;;;;;;14.47;3.30;;;;;;;9.10;100.00;99318.69;5071406;28;20203;-78
2024/01/25 03:20:30;;;;;;;10.23;2.73;;;;;;;9.12;100.00;99316.00;5072013;28;20214;-77
2024/01/25 03:22:56;;;;;;;11.73;2.50;;;;;;;9.10;100.00;99323.09;5071851;28;20230;-77
2024/01/25 03:25:23;;;;;;;8.90;2.77;;;;;;;9.06;100.00;99324.16;5071748;28;20649;-77
2024/01/25 03:27:49;;;;;;;18.57;2.93;;;;;;;9.05;100.00;99320.66;5071348;28;20654;-77
2024/01/25 03:30:16;;;;;;;14.73;2.60;;;;;;;9.14;100.00;99327.31;5072101;28;20223;-77
2024/01/25 03:32:44;;;;;;;10.60;3.00;;;;;;;9.15;100.00;99321.09;5071696;28;20239;-77
2024/01/25 03:35:10;;;;;;;11.73;2.10;;;;;;;9.11;100.00;99330.09;5071897;28;20214;-78
2024/01/25 03:37:37;;;;;;;9.63;2.23;;;;;;;9.10;100.00;99323.97;5071311;28;20578;-77
2024/01/25 03:40:04;;;;;;;8.03;2.10;;;;;;;9.10;100.00;99331.00;5071675;28;20207;-77
2024/01/25 03:42:31;;;;;;;10.60;2.60;;;;;;;9.13;100.00;99338.78;5071632;28;20225;-77
2024/01/25 03:44:57;;;;;;;8.23;2.20;;;;;;;9.14;100.00;99343.13;5071581;28;20210;-77
2024/01/25 03:47:24;;;;;;;11.63;2.97;;;;;;;9.15;100.00;99344.84;5071120;28;20240;-77
2024/01/25 03:49:52;;;;;;;8.63;2.23;;;;;;;9.12;100.00;99352.91;5071454;28;20209;-77
2024/01/25 03:52:18;;;;;;;14.53;3.30;;;;;;;9.01;100.00;99356.00;5071753;28;20229;-77
2024/01/25 03:54:44;;;;;;;10.93;3.13;;;;;;;9.02;100.00;99367.41;5071614;28;20228;-77
2024/01/25 03:57:11;;;;;;;16.03;2.57;;;;;;;9.07;100.00;99365.44;5070981;28;20211;-77
2024/01/25 03:59:38;;;;;;;8.97;2.20;;;;;;;9.01;100.00;99368.34;5071736;28;20670;-77
2024/01/25 04:02:05;;;;;;;13.73;2.60;;;;;;;8.94;100.00;99359.00;5071721;28;20257;-77
2024/01/25 04:04:31;;;;;;;14.90;2.37;;;;;;;8.87;100.00;99363.66;5071257;28;20662;-77
2024/01/25 04:06:59;;;;;;;9.97;2.40;;;;;;;8.85;100.00;99367.28;5071212;28;20213;-77
2024/01/25 04:09:25;;;;;;;14.87;3.27;;;;;;;8.84;100.00;99370.84;5071468;28;20598;-77
2024/01/25 04:11:52;;;;;;;13.33;2.77;;;;;;;8.80;100.00;99366.59;5071510;28;20227;-78
2024/01/25 04:14:19;;;;;;;10.33;2.27;;;;;;;8.84;100.00;99376.13;5071636;28;20204;-77
2024/01/25 04:16:46;;;;;;;15.33;3.47;;;;;;;8.79;100.00;99370.19;5070139;28;20238;-78
2024/01/25 04:19:13;;;;;;;8.90;2.50;;;;;;;8.80;100.00;99369.25;5071480;28;20204;-77
2024/01/25 04:21:39;;;;;;;10.80;2.23;;;;;;;8.78;100.00;99363.19;5071313;28;20260;-78
2024/01/25 04:24:07;;;;;;;7.50;2.87;;;;;;;8.78;100.00;99366.69;5071771;28;20580;-77
2024/01/25 04:26:34;;;;;;;10.27;2.97;;;;;;;8.77;100.00;99366.75;5070871;28;20209;-78
2024/01/25 04:29:00;;;;;;;12.13;3.20;;;;;;;8.73;100.00;99371.31;5071163;28;20228;-78
2024/01/25 04:31:27;;;;;;;12.00;2.53;;;;;;;8.71;100.00;99370.53;5071031;28;20709;-78
2024/01/25 04:33:55;;;;;;;9.53;3.00;;;;;;;8.74;100.00;99357.19;5071082;28;20207;-78
2024/01/25 04:36:22;;;;;;;10.67;3.03;;;;;;;8.71;100.00;99354.72;5070965;28;20212;-78
2024/01/25 04:38:48;;;;;;;16.70;3.00;;;;;;;8.73;100.00;99370.44;5071143;28;20215;-77
2024/01/25 04:41:16;;;;;;;14.57;2.80;;;;;;;8.69;100.00;99358.31;5071129;28;20229;-77
2024/01/25 04:43:43;;;;;;;11.67;2.57;;;;;;;8.66;100.00;99368.97;5070932;28;20588;-78
2024/01/25 04:46:10;;;;;;;12.33;3.23;;;;;;;8.65;100.00;99372.53;5070998;28;20221;-77
2024/01/25 04:48:36;;;;;;;12.43;2.67;;;;;;;8.65;100.00;99362.00;5070674;28;20256;-77
2024/01/25 04:51:03;;;;;;;9.50;2.37;;;;;;;8.59;100.00;99362.25;5070935;28;20215;-77
2024/01/25 04:53:29;;;;;;;9.93;2.77;;;;;;;8.54;100.00;99364.22;5070993;28;20553;-77
2024/01/25 04:55:56;;;;;;;16.23;2.80;;;;;;;8.44;100.00;99369.00;5071060;28;20219;-77
2024/01/25 04:58:25;;;;;;;13.80;3.50;;;;;;;8.35;100.00;99374.69;5070607;28;20206;-77
2024/01/25 05:00:52;;;;;;;9.57;2.67;;;;;;;8.25;100.00;99378.59;5070850;28;20298;-77
2024/01/25 05:03:19;;;;;;;15.53;3.00;;;;;;;8.14;100.00;99385.19;5071235;28;20210;-77
2024/01/25 05:05:45;;;;;;;20.97;3.20;;;;;;;8.11;100.00;99386.16;5070908;28;20209;-77
2024/01/25 05:08:12;;;;;;;7.80;2.30;;;;;;;8.04;100.00;99386.44;5070289;28;20233;-77
2024/01/25 05:10:38;;;;;;;9.07;2.40;;;;;;;8.01;100.00;99383.91;5072785;28;20568;-78
2024/01/25 05:13:05;;;;;;;19.67;3.23;;;;;;;7.85;100.00;99378.41;5076663;28;20230;-78
2024/01/25 05:15:33;;;;;;;15.27;3.53;;;;;;;7.80;100.00;99390.91;5076455;28;20214;-78
2024/01/25 05:17:59;;;;;;;15.23;2.83;;;;;;;7.78;100.00;99391.88;5076526;28;20210;-78
2024/01/25 05:20:31;;;;;;;10.73;2.40;;;;;;;7.68;100.00;99390.50;5074621;28;20674;-77
2024/01/25 05:22:58;;;;;;;10.93;2.50;;;;;;;7.66;100.00;99408.13;5070316;28;20738;-78
2024/01/25 05:25:25;;;;;;;11.23;2.33;;;;;;;7.60;100.00;99410.97;5070552;28;20212;-77
2024/01/25 05:27:52;;;;;;;11.73;2.47;;;;;;;7.58;100.00;99397.00;5071154;28;20235;-77
2024/01/25 05:30:19;;;;;;;12.13;2.87;;;;;;;7.50;100.00;99401.69;5073910;28;20219;-77
2024/01/25 05:32:48;;;;;;;8.63;2.80;;;;;;;7.47;100.00;99412.34;5073762;28;20228;-77
2024/01/25 05:35:15;;;;;;;14.60;2.90;;;;;;;7.43;100.00;99416.00;5073903;28;20647;-77
2024/01/25 05:37:41;;;;;;;10.30;2.63;;;;;;;7.32;100.00;99418.16;5073449;28;20580;-77
2024/01/25 05:40:09;;;;;;;11.47;2.30;;;;;;;7.28;100.00;99432.34;5073814;28;20222;-77
2024/01/25 05:42:36;;;;;;;18.30;2.90;;;;;;;7.16;100.00;99416.13;5073949;28;20779;-77
2024/01/25 05:45:03;;;;;;;12.97;3.50;;;;;;;7.13;100.00;99419.72;5074244;28;20228;-77
2024/01/25 05:47:29;;;;;;;12.83;2.70;;;;;;;7.09;100.00;99426.00;5073761;28;20211;-77
2024/01/25 05:49:57;;;;;;;15.03;2.90;;;;;;;7.09;100.00;99420.72;5073575;28;20247;-77
2024/01/25 05:52:24;;;;;;;9.77;2.30;;;;;;;6.99;100.00;99426.38;5073612;28;20334;-77
2024/01/25 05:54:51;;;;;;;10.50;2.60;;;;;;;6.91;100.00;99431.88;5073336;28;20207;-77
2024/01/25 05:57:18;;;;;;;11.13;2.40;;;;;;;6.86;100.00;99439.09;5073389;28;20210;-77
2024/01/25 05:59:45;;;;;;;10.53;2.30;;;;;;;6.84;100.00;99440.03;5073654;28;20688;-77
2024/01/25 06:02:11;;;;;;;13.73;3.17;;;;;;;6.75;100.00;99433.31;5073741;28;20289;-77
2024/01/25 06:04:38;;;;;;;7.13;2.73;;;;;;;6.74;100.00;99443.88;5073636;28;20550;-77
2024/01/25 06:07:06;;;;;;;10.73;2.80;;;;;;;6.71;100.00;99441.38;5072889;28;20208;-77
2024/01/25 06:09:32;;;;;;;12.30;2.70;;;;;;;6.61;100.00;99453.06;5073226;28;20232;-77
2024/01/25 06:11:59;;;;;;;14.47;2.87;;;;;;;6.54;100.00;99452.41;5073180;28;20711;-77
2024/01/25 06:14:25;;;;;;;5.83;2.67;;;;;;;6.56;100.00;99447.09;5073347;28;20592;-77
2024/01/25 06:16:52;;;;;;;10.77;2.70;;;;;;;6.48;100.00;99447.34;5072825;28;20217;-77
2024/01/25 06:19:21;;;;;;;8.63;2.33;;;;;;;6.41;100.00;99450.25;5073334;28;20210;-77
2024/01/25 06:21:47;;;;;;;10.57;2.90;;;;;;;6.38;100.00;99456.44;5073048;28;20231;-77
2024/01/25 06:24:15;;;;;;;10.77;3.47;;;;;;;6.32;100.00;99453.13;5072971;28;20587;-77
2024/01/25 06:26:41;;;;;;;10.73;2.57;;;;;;;6.27;100.00;99453.28;5072737;28;20203;-77
2024/01/25 06:29:08;;;;;;;10.53;3.00;;;;;;;6.20;100.00;99446.50;5072883;28;20235;-77
2024/01/25 06:31:42;;;;;;;13.33;3.50;;;;;;;6.13;100.00;99445.00;5072835;28;20232;-77
2024/01/25 06:34:12;;;;;;;10.57;2.60;;;;;;;6.17;100.00;99451.84;5073174;28;20693;-77
2024/01/25 06:36:38;;;;;;;9.00;2.47;;;;;;;6.14;100.00;99451.94;5072530;28;20594;-77
2024/01/25 06:39:05;;;;;;;10.40;3.03;;;;;;;6.16;100.00;99450.13;5071761;28;20207;-77
2024/01/25 06:41:33;;;;;;;11.13;2.70;;;;;;;6.14;100.00;99457.19;5073129;28;20242;-77
2024/01/25 06:44:00;;;;;;;13.17;3.50;;;;;;;6.11;100.00;99459.91;5072736;28;20207;-77
2024/01/25 06:46:26;;;;;;;12.77;2.80;;;;;;;6.04;100.00;99466.25;5072139;28;20210;-77
2024/01/25 06:48:53;;;;;;;9.57;2.63;;;;;;;6.02;100.00;99473.31;5072772;28;20224;-77
2024/01/25 06:51:20;;;;;;;8.07;2.00;;;;;;;6.02;100.00;99473.31;5072864;28;20240;-77
2024/01/25 06:53:46;;;;;;;11.77;2.90;;;;;;;6.00;100.00;99480.38;5072334;28;20693;-77
2024/01/25 06:56:13;;;;;;;12.53;2.77;;;;;;;5.96;100.00;99489.25;5072624;28;20261;-77
2024/01/25 06:58:41;;;;;;;8.10;2.63;;;;;;;5.89;100.00;99492.97;5072475;28;20200;-77
2024/01/25 07:01:07;;;;;;;10.03;3.07;;;;;;;5.85;100.00;99491.31;5072559;28;20578;-77
2024/01/25 07:03:34;;;;;;;13.90;3.80;;;;;;;5.88;100.00;99491.25;5072331;28;20212;-77
2024/01/25 07:06:00;;;;;;;8.77;3.83;;;;;;;5.85;100.00;99491.31;5072038;28;20207;-77
2024/01/25 07:08:27;;;;;;;12.87;3.87;;;;;;;5.80;100.00;99501.06;5071294;28;20713;-77
2024/01/25 07:10:53;;;;;;;10.07;2.83;;;;;;;5.81;100.00;99502.78;5072074;28;20308;-77
2024/01/25 07:13:20;;;;;;;10.67;2.80;;;;;;;5.76;100.00;99506.44;5071927;28;20208;-77
2024/01/25 07:15:48;;;;;;;8.10;3.07;;;;;;;5.70;100.00;99507.47;5072003;28;20210;-77
2024/01/25 07:18:15;;;;;;;15.80;3.20;;;;;;;5.74;100.00;99495.97;5071464;28;20687;-77
2024/01/25 07:20:41;;;;;;;15.23;3.20;;;;;;;5.79;100.00;99491.47;5072113;28;20211;-77
2024/01/25 07:23:08;;;;;;;13.00;3.37;;;;;;;5.80;100.00;99498.47;5071990;28;20226;-77
2024/01/25 07:25:34;;;;;;;11.10;3.93;;;;;;;5.84;100.00;99489.59;5071664;28;20207;-77
2024/01/25 07:28:01;;;;;;;11.97;2.97;;;;;;;5.84;100.00;99500.09;5071219;28;20224;-77
2024/01/25 07:30:27;;;;;;;8.90;3.30;;;;;;;5.83;100.00;99498.38;5071541;28;20226;-77
2024/01/25 07:32:55;;;;;;;13.50;3.00;;;;;;;5.85;100.00;99501.81;5071490;28;20254;-77
2024/01/25 07:35:23;;;;;;;9.93;2.73;;;;;;;5.85;100.00;99507.06;5071896;28;20214;-77
2024/01/25 07:37:49;;;;;;;6.77;2.57;;;;;;;5.85;100.00;99512.31;5072075;28;20213;-78
2024/01/25 07:40:16;;;;;;;9.77;3.33;;;;;;;5.83;100.00;99524.63;5073399;28;20217;-78
2024/01/25 07:42:42;;;;;;;10.57;2.70;;;;;;;5.80;100.00;99524.69;5072253;28;20223;-77
2024/01/25 07:45:10;;;;;;;8.73;2.90;;;;;;;5.73;100.00;99536.22;5071292;28;20203;-76
2024/01/25 07:47:37;;;;;;;8.43;2.77;;;;;;;5.73;100.00;99535.38;5070663;28;20676;-76
2024/01/25 07:50:06;;;;;;;12.37;2.90;;;;;;;5.73;100.00;99538.84;5071529;28;20227;-77
2024/01/25 07:52:32;;;;;;;14.90;3.47;;;;;;;5.79;100.00;99532.56;5071181;28;20238;-77
2024/01/25 07:54:59;;;;;;;7.10;2.40;;;;;;;5.82;100.00;99522.91;5071072;28;20878;-76
2024/01/25 07:57:25;;;;;;;12.43;3.37;;;;;;;5.89;100.00;99516.56;5070933;28;20226;-77
2024/01/25 07:59:51;;;;;;;11.70;3.00;;;;;;;5.89;100.00;99508.69;5071485;28;20206;-77
2024/01/25 08:02:19;;;;;;;11.73;3.07;;;;;;;5.96;100.00;99504.13;5071652;28;20234;-77
2024/01/25 08:04:45;;;;;;;9.60;3.03;;;;;;;5.94;100.00;99496.31;5071412;28;20219;-77
2024/01/25 08:07:13;;;;;;;13.40;3.07;;;;;;;5.97;100.00;99490.09;5071073;28;20203;-76
2024/01/25 08:09:40;;;;;;;10.00;2.93;;;;;;;5.97;100.00;99501.47;5071336;28;20227;-76
2024/01/25 08:12:07;;;;;;;15.03;3.73;;;;;;;5.96;100.00;99507.63;5071387;28;20249;-77
2024/01/25 08:14:33;;;;;;;11.73;3.03;;;;;;;5.95;100.00;99505.91;5071142;28;20211;-77
2024/01/25 08:17:00;;;;;;;10.20;2.90;;;;;;;5.98;100.00;99516.28;5070985;28;20617;-76
2024/01/25 08:19:26;;;;;;;10.57;3.17;;;;;;;5.94;100.00;99517.31;5071441;28;20234;-78
2024/01/25 08:21:53;;;;;;;14.37;3.30;;;;;;;5.99;100.00;99511.91;5071539;28;20223;-77
2024/01/25 08:24:20;;;;;;;12.07;4.07;;;;;;;6.03;100.00;99511.78;5071259;28;20214;-77
2024/01/25 08:26:47;;;;;;;10.83;2.97;;;;;;;6.04;100.00;99508.25;5070632;28;20210;-77
2024/01/25 08:29:13;;;;;;;12.53;3.00;;;;;;;6.08;100.00;99509.00;5071205;28;20238;-77
2024/01/25 08:31:40;;;;;;;13.37;3.67;;;;;;;6.12;100.00;99506.25;5070965;28;20250;-77
2024/01/25 08:34:06;;;;;;;13.97;3.43;;;;;;;6.17;100.00;99498.25;5071487;28;20305;-78
2024/01/25 08:36:33;;;;;;;9.37;2.90;;;;;;;6.20;100.00;99503.41;5070600;28;20207;-77
2024/01/25 08:38:59;;;;;;;12.47;3.47;;;;;;;6.24;100.00;99511.13;5071006;28;20203;-77
2024/01/25 08:41:27;;;;;;;14.83;3.83;;;;;;;6.29;100.00;99519.72;5070780;28;20224;-77
2024/01/25 08:43:54;;;;;;;13.00;2.93;;;;;;;6.31;100.00;99530.19;5070724;28;20208;-77
2024/01/25 08:46:20;;;;;;;11.57;3.47;;;;;;;6.38;100.00;99535.22;5070246;28;20210;-77
2024/01/25 08:48:47;;;;;;;14.20;3.40;;;;;;;6.40;100.00;99548.31;5070722;28;20203;-77
2024/01/25 08:51:13;;;;;;;10.03;3.10;;;;;;;6.55;100.00;99538.19;5070674;28;20629;-78
2024/01/25 08:53:40;;;;;;;13.33;5.57;;;;;;;6.63;100.00;99545.81;5071015;28;20218;-77
2024/01/25 08:56:07;;;;;;;15.27;4.00;;;;;;;6.68;100.00;99541.28;5070540;28;20583;-77
2024/01/25 08:58:35;;;;;;;17.27;3.33;;;;;;;6.73;100.00;99548.09;5070343;28;20234;-77
2024/01/25 09:01:01;;;;;;;12.37;2.73;;;;;;;6.79;100.00;99540.03;5072989;28;20210;-77
2024/01/25 09:03:28;;;;;;;17.13;3.47;;;;;;;6.83;100.00;99544.28;5071876;28;20666;-77
2024/01/25 09:05:54;;;;;;;14.07;3.00;;;;;;;6.85;100.00;99547.72;5072855;28;20234;-77
2024/01/25 09:08:21;;;;;;;15.13;2.33;;;;;;;6.96;100.00;99542.97;5072808;28;20210;-78
2024/01/25 09:10:47;;;;;;;9.60;2.93;;;;;;;7.09;100.00;99540.81;5073908;28;20234;-77
2024/01/25 09:13:13;;;;;;;9.87;3.00;;;;;;;7.22;100.00;99544.75;5074673;28;20227;-77
2024/01/25 09:15:43;;;;;;;17.53;3.63;;;;;;;7.31;100.00;99547.94;5073668;28;20207;-76
2024/01/25 09:18:09;;;;;;;13.33;3.47;;;;;;;7.39;100.00;99552.03;5072923;28;20273;-76
2024/01/25 09:20:36;;;;;;;18.00;3.27;;;;;;;7.51;100.00;99562.13;5073137;28;20199;-77
2024/01/25 09:23:02;;;;;;;9.43;2.70;;;;;;;7.58;100.00;99553.09;5074217;28;20399;-77
2024/01/25 09:25:29;;;;;;;11.00;2.40;;;;;;;7.62;100.00;99559.13;5075035;28;20219;-77
2024/01/25 09:27:56;;;;;;;14.73;3.13;;;;;;;7.60;100.00;99559.16;5073768;28;20213;-79
2024/01/25 09:30:23;;;;;;;16.13;2.27;;;;;;;7.68;100.00;99564.16;5075310;28;20231;-77
2024/01/25 09:32:51;;;;;;;15.40;2.83;;;;;;;7.74;100.00;99569.22;5075317;28;20696;-78
2024/01/25 09:35:18;;;;;;;9.37;2.57;;;;;;;7.82;100.00;99573.31;5075447;28;20679;-78
2024/01/25 09:37:44;;;;;;;13.37;3.50;;;;;;;8.06;100.00;99564.53;5074874;28;20209;-77
2024/01/25 09:40:11;;;;;;;14.77;3.73;;;;;;;8.11;100.00;99559.09;5074481;28;20208;-77
2024/01/25 09:42:38;;;;;;;11.20;2.97;;;;;;;8.12;100.00;99555.53;5074338;28;20232;-77
2024/01/25 09:45:07;;;;;;;11.40;2.70;;;;;;;8.19;100.00;99567.56;5075572;28;20208;-77
2024/01/25 09:47:34;;;;;;;10.57;3.17;;;;;;;8.30;100.00;99566.28;5077243;28;20212;-78
2024/01/25 09:50:02;;;;;;;12.27;3.08;;;;;;;8.58;100.00;99566.09;5076830;28;20450;-78
2024/01/25 09:52:30;;;;;;;14.63;3.07;;;;;;;8.79;100.00;99557.34;5074744;28;20319;-76
2024/01/25 09:54:58;;;;;;;11.00;3.20;;;;;;;8.99;100.00;99558.25;5075100;28;20213;-77
2024/01/25 09:57:28;;;;;;;10.80;2.97;;;;;;;9.06;100.00;99553.63;5073798;28;20209;-77
2024/01/25 09:59:55;;;;;;;10.13;2.87;;;;;;;9.08;100.00;99555.28;5075042;28;20222;-79
2024/01/25 10:02:22;;;;;;;9.77;2.47;;;;;;;9.23;100.00;99561.72;5074649;28;20230;-78
2024/01/25 10:04:50;;;;;;;9.97;2.63;;;;;;;9.29;100.00;99548.22;5073352;28;20205;-77
2024/01/25 10:07:33;;;;;;;11.13;2.80;;;;;;;9.33;100.00;99552.47;5073089;28;20677;-78
2024/01/25 10:10:00;;;;;;;12.40;3.07;;;;;;;9.34;100.00;99557.69;5073082;28;20708;-77
2024/01/25 10:12:26;;;;;;;11.15;2.85;;;;;;;9.46;100.00;99553.66;5073278;28;20520;-77
2024/01/25 10:14:53;;;;;;;10.70;2.77;;;;;;;9.49;100.00;99543.81;5073461;28;20263;-77
2024/01/25 10:17:19;;;;;;;8.57;2.43;;;;;;;9.62;100.00;99536.25;5072943;28;20211;-77
2024/01/25 10:19:46;;;;;;;10.73;2.63;;;;;;;9.74;100.00;99528.66;5073224;28;20230;-77
2024/01/25 10:22:13;;;;;;;19.33;2.70;;;;;;;9.86;99.97;99527.28;5073252;28;20743;-77
2024/01/25 10:24:41;;;;;;;10.80;2.77;;;;;;;10.03;98.44;99520.31;5073012;28;20221;-77
2024/01/25 10:27:08;;;;;;;10.07;2.63;;;;;;;10.22;95.74;99504.50;5072707;28;20226;-77
2024/01/25 10:29:35;;;;;;;10.90;3.00;;;;;;;10.31;91.99;99493.50;5073063;28;20285;-77
2024/01/25 10:32:03;;;;;;;9.30;2.17;;;;;;;10.33;90.25;99476.66;5072575;28;20320;-77
2024/01/25 10:34:31;;;;;;;10.47;2.47;;;;;;;10.25;91.13;99496.44;5073201;28;20218;-77
2024/01/25 10:36:58;;;;;;;11.37;2.80;;;;;;;10.17;91.69;99495.94;5072518;28;20215;-77
2024/01/25 10:39:25;;;;;;;12.57;3.27;;;;;;;10.05;92.93;99505.28;5072866;28;20213;-77
2024/01/25 10:41:54;;;;;;;10.07;2.60;;;;;;;9.90;92.59;99502.44;5072724;28;20226;-77
2024/01/25 10:44:21;;;;;;;14.83;2.40;;;;;;;9.81;92.81;99497.56;5072580;28;20211;-77
2024/01/25 10:46:48;;;;;;;14.70;2.73;;;;;;;9.85;93.38;99499.16;5072349;28;20268;-77
2024/01/25 10:49:15;;;;;;;9.67;2.37;;;;;;;9.99;93.45;99488.81;5072651;28;20254;-77
2024/01/25 10:51:42;;;;;;;14.90;2.27;;;;;;;10.19;92.78;99488.78;5072387;28;20235;-77
2024/01/25 10:54:09;;;;;;;13.63;2.43;;;;;;;10.43;91.51;99477.94;5072383;28;20216;-77
2024/01/25 10:56:36;;;;;;;9.73;2.53;;;;;;;10.62;89.08;99470.84;5071964;28;20208;-76
2024/01/25 10:59:06;;;;;;;10.23;2.30;;;;;;;10.71;88.91;99477.47;5072443;28;20213;-77
2024/01/25 11:01:34;;;;;;;11.90;2.77;;;;;;;10.69;84.55;99452.88;5072182;28;20302;-76
2024/01/25 11:04:01;;;;;;;9.90;2.30;;;;;;;10.64;84.04;99455.75;5072229;28;20229;-77
2024/01/25 11:06:28;;;;;;;12.37;2.53;;;;;;;10.55;85.86;99471.19;5071844;28;20618;-77
2024/01/25 11:09:05;;;;;;;10.47;2.70;;;;;;;10.38;85.42;99463.22;5072305;28;20220;-76
2024/01/25 11:11:32;;;;;;;11.03;3.17;;;;;;;10.29;85.68;99459.22;5071900;28;20273;-77
2024/01/25 11:13:59;;;;;;;6.40;2.23;;;;;;;10.19;87.22;99463.22;5072074;28;20208;-78
2024/01/25 11:16:31;;;;;;;14.30;2.30;;;;;;;10.30;85.56;99449.50;5071821;28;20375;-77
2024/01/25 11:19:04;;;;;;;14.03;2.87;;;;;;;10.33;85.56;99444.09;5072295;28;20605;-77
2024/01/25 11:21:41;;;;;;;12.97;3.07;;;;;;;10.45;86.97;99438.22;5072397;28;20220;-77
2024/01/25 11:24:13;;;;;;;7.70;2.27;;;;;;;10.44;85.87;99441.78;5071845;28;20270;-77
2024/01/25 11:26:39;;;;;;;12.00;2.20;;;;;;;10.52;84.57;99426.41;5071463;28;20205;-77